createdAt,value
2022-12-05T00:01:44.752Z,74.83
2022-12-05T00:03:48.316Z,74.45
2022-12-05T00:05:51.056Z,74.30
2022-12-05T00:07:53.736Z,74.50
2022-12-05T00:09:56.573Z,74.81
2022-12-05T00:11:59.423Z,74.04
2022-12-05T00:14:02.945Z,74.44
2022-12-05T00:16:10.566Z,74.56
2022-12-05T00:18:13.201Z,74.57
2022-12-05T00:20:15.853Z,74.84
2022-12-05T00:22:18.500Z,75.39
2022-12-05T00:24:21.718Z,75.36
2022-12-05T00:26:24.707Z,75.18
2022-12-05T00:28:27.303Z,75.53
2022-12-05T00:30:29.888Z,76.00
2022-12-05T00:32:33.899Z,75.59
2022-12-05T00:34:36.529Z,76.13
2022-12-05T00:36:39.334Z,75.74
2022-12-05T00:38:42.594Z,76.22
2022-12-05T00:40:45.222Z,75.01
2022-12-05T00:42:52.138Z,75.60
2022-12-05T00:44:55.152Z,75.35
2022-12-05T00:46:57.815Z,75.83
2022-12-05T00:49:03.138Z,75.39
2022-12-05T00:51:08.437Z,76.48
2022-12-05T00:53:11.023Z,76.64
2022-12-05T00:55:13.666Z,75.95
2022-12-05T00:57:16.274Z,76.39
2022-12-05T00:59:20.855Z,76.27
2022-12-05T01:01:25.669Z,76.40
2022-12-05T01:03:28.383Z,76.45
2022-12-05T01:05:35.024Z,76.40
2022-12-05T01:07:37.770Z,76.25
2022-12-05T01:09:40.377Z,76.80
2022-12-05T01:11:44.911Z,76.87
2022-12-05T01:13:48.657Z,76.80
2022-12-05T01:15:52.071Z,77.38
2022-12-05T01:17:54.630Z,76.78
2022-12-05T01:19:57.566Z,76.82
2022-12-05T01:22:02.010Z,76.92
2022-12-05T01:24:04.980Z,76.99
2022-12-05T01:26:09.177Z,77.21
2022-12-05T01:28:12.970Z,77.52
2022-12-05T01:30:15.953Z,77.23
2022-12-05T01:32:19.274Z,77.94
2022-12-05T01:34:22.321Z,77.49
2022-12-05T01:36:26.534Z,78.08
2022-12-05T01:38:30.958Z,78.18
2022-12-05T01:40:35.892Z,78.13
2022-12-05T01:42:39.873Z,77.71
2022-12-05T01:45:02.649Z,78.00
2022-12-05T01:47:05.381Z,78.28
2022-12-05T01:49:11.912Z,78.20
2022-12-05T01:51:14.538Z,78.05
2022-12-05T01:53:17.582Z,77.86
2022-12-05T01:55:21.780Z,78.21
2022-12-05T01:57:25.546Z,78.53
2022-12-05T01:59:31.539Z,78.41
2022-12-05T02:01:34.959Z,78.36
2022-12-05T02:03:39.036Z,79.01
2022-12-05T02:05:42.375Z,79.10
2022-12-05T02:07:47.290Z,79.07
2022-12-05T02:09:52.019Z,79.06
2022-12-05T02:11:59.608Z,79.10
2022-12-05T02:14:17.368Z,78.88
2022-12-05T02:16:29.394Z,79.22
2022-12-05T02:18:43.790Z,79.34
2022-12-05T02:21:04.151Z,78.62
2022-12-05T02:23:26.525Z,79.20
2022-12-05T02:25:54.481Z,79.10
2022-12-05T02:28:22.400Z,79.22
2022-12-05T02:30:27.855Z,79.24
2022-12-05T02:32:42.266Z,79.48
2022-12-05T02:34:53.982Z,79.70
2022-12-05T02:37:03.527Z,79.73
2022-12-05T02:39:13.466Z,79.57
2022-12-05T02:41:22.231Z,79.93
2022-12-05T02:43:30.447Z,80.04
2022-12-05T02:45:39.406Z,79.99
2022-12-05T02:47:45.149Z,79.86
2022-12-05T02:49:49.641Z,79.82
2022-12-05T02:51:57.613Z,79.47
2022-12-05T02:54:03.626Z,79.86
2022-12-05T02:56:08.151Z,79.72
2022-12-05T02:58:18.278Z,79.31
2022-12-05T03:00:21.850Z,79.61
2022-12-05T03:02:28.000Z,79.18
2022-12-05T03:04:32.328Z,79.17
2022-12-05T03:06:38.060Z,79.06
2022-12-05T03:08:46.582Z,79.13
2022-12-05T03:10:52.156Z,79.46
2022-12-05T03:12:59.906Z,79.32
2022-12-05T03:15:07.408Z,79.26
2022-12-05T03:17:14.946Z,79.29
2022-12-05T03:19:24.116Z,79.40
2022-12-05T03:21:32.633Z,79.37
2022-12-05T03:23:39.075Z,79.67
2022-12-05T03:25:51.565Z,79.18
2022-12-05T03:28:03.338Z,79.11
2022-12-05T03:30:08.772Z,79.02
2022-12-05T03:32:15.166Z,79.52
2022-12-05T03:34:30.665Z,79.53
2022-12-05T03:36:38.883Z,79.49
2022-12-05T03:38:49.023Z,79.51
2022-12-05T03:40:58.213Z,79.17
2022-12-05T03:43:09.062Z,79.15
2022-12-05T03:45:16.150Z,79.24
2022-12-05T03:47:25.245Z,79.44
2022-12-05T03:49:34.561Z,79.38
2022-12-05T03:51:44.008Z,79.15
2022-12-05T03:53:51.317Z,79.40
2022-12-05T03:56:00.262Z,78.85
2022-12-05T03:58:08.388Z,78.80
2022-12-05T04:00:13.973Z,78.94
2022-12-05T04:02:23.007Z,78.83
2022-12-05T04:04:32.392Z,79.09
2022-12-05T04:06:37.579Z,79.00
2022-12-05T04:08:43.840Z,79.39
2022-12-05T04:10:50.467Z,78.87
2022-12-05T04:12:56.770Z,78.49
2022-12-05T04:15:02.951Z,78.12
2022-12-05T04:17:09.324Z,77.67
2022-12-05T04:19:17.821Z,78.36
2022-12-05T04:21:41.155Z,78.48
2022-12-05T04:23:47.795Z,78.49
2022-12-05T04:26:01.490Z,78.57
2022-12-05T04:28:21.172Z,78.58
2022-12-05T04:30:26.486Z,78.66
2022-12-05T04:32:34.527Z,78.73
2022-12-05T04:34:39.641Z,78.58
2022-12-05T04:36:48.241Z,78.73
2022-12-05T04:38:56.036Z,78.41
2022-12-05T04:41:01.775Z,78.49
2022-12-05T04:43:05.840Z,78.68
2022-12-05T04:45:12.874Z,78.64
2022-12-05T04:47:18.072Z,78.01
2022-12-05T04:49:24.269Z,77.56
2022-12-05T04:51:30.433Z,77.76
2022-12-05T04:53:35.435Z,77.27
2022-12-05T04:55:42.807Z,77.14
2022-12-05T04:57:53.169Z,76.91
2022-12-05T04:59:56.638Z,77.26
2022-12-05T05:02:05.949Z,77.17
2022-12-05T05:04:12.418Z,77.16
2022-12-05T05:06:15.881Z,76.40
2022-12-05T05:08:20.761Z,76.61
2022-12-05T05:10:32.093Z,76.04
2022-12-05T05:12:34.669Z,76.34
2022-12-05T05:14:37.307Z,76.65
2022-12-05T05:16:41.371Z,77.18
2022-12-05T05:18:43.978Z,77.62
2022-12-05T05:20:46.589Z,77.63
2022-12-05T05:22:49.523Z,77.98
2022-12-05T05:24:52.160Z,78.05
2022-12-05T05:26:57.613Z,77.88
2022-12-05T05:29:01.124Z,78.48
2022-12-05T05:31:04.614Z,78.45
2022-12-05T05:33:07.305Z,78.70
2022-12-05T05:35:11.645Z,78.17
2022-12-05T05:37:14.314Z,78.75
2022-12-05T05:39:16.947Z,78.24
2022-12-05T05:41:20.960Z,78.63
2022-12-05T05:43:27.695Z,78.50
2022-12-05T05:45:30.286Z,78.35
2022-12-05T05:47:32.908Z,78.52
2022-12-05T05:49:35.593Z,78.83
2022-12-05T05:51:38.281Z,78.58
2022-12-05T05:53:41.010Z,78.85
2022-12-05T05:55:43.773Z,78.27
2022-12-05T05:57:46.437Z,78.71
2022-12-05T05:59:50.417Z,78.64
2022-12-05T06:01:53.028Z,78.72
2022-12-05T06:03:55.795Z,78.64
2022-12-05T06:05:59.124Z,78.95
2022-12-05T06:08:01.748Z,78.04
2022-12-05T06:10:05.499Z,78.72
2022-12-05T06:12:08.563Z,78.67
2022-12-05T06:14:11.199Z,78.90
2022-12-05T06:16:17.337Z,79.23
2022-12-05T06:18:19.914Z,79.16
2022-12-05T06:20:22.518Z,79.22
2022-12-05T06:22:25.116Z,79.35
2022-12-05T06:24:27.815Z,79.31
2022-12-05T06:26:30.431Z,79.74
2022-12-05T06:28:33.730Z,79.57
2022-12-05T06:30:36.355Z,79.65
2022-12-05T06:32:40.357Z,79.96
2022-12-05T06:34:42.984Z,80.04
2022-12-05T06:36:45.569Z,79.50
2022-12-05T06:38:48.216Z,79.59
2022-12-05T06:40:50.846Z,79.46
2022-12-05T06:42:53.537Z,79.42
2022-12-05T06:44:56.153Z,79.83
2022-12-05T06:46:58.792Z,79.70
2022-12-05T06:49:03.001Z,79.66
2022-12-05T06:51:06.968Z,79.54
2022-12-05T06:53:09.606Z,78.48
2022-12-05T06:55:12.268Z,78.99
2022-12-05T06:57:15.231Z,78.84
2022-12-05T06:59:17.984Z,78.59
2022-12-05T07:01:41.514Z,78.91
2022-12-05T07:03:44.990Z,79.32
2022-12-05T07:05:49.117Z,79.70
2022-12-05T07:07:52.048Z,79.61
2022-12-05T07:09:54.801Z,80.01
2022-12-05T07:11:57.420Z,80.03
2022-12-05T07:14:00.175Z,79.90
2022-12-05T07:16:04.400Z,79.97
2022-12-05T07:18:07.250Z,80.24
2022-12-05T07:20:12.654Z,79.98
2022-12-05T07:22:16.612Z,80.67
2022-12-05T07:24:19.262Z,80.33
2022-12-05T07:26:27.084Z,80.84
2022-12-05T07:28:29.853Z,80.53
2022-12-05T07:30:32.843Z,81.02
2022-12-05T07:32:35.764Z,80.68
2022-12-05T07:34:39.433Z,80.99
2022-12-05T07:36:42.121Z,80.96
2022-12-05T07:38:46.323Z,80.84
2022-12-05T07:40:48.894Z,80.38
2022-12-05T07:42:53.341Z,80.62
2022-12-05T07:44:55.945Z,80.35
2022-12-05T07:46:58.947Z,80.80
2022-12-05T07:49:01.520Z,80.37
2022-12-05T07:51:06.144Z,80.53
2022-12-05T07:53:08.781Z,80.63
2022-12-05T07:55:12.760Z,80.26
2022-12-05T07:57:15.365Z,80.53
2022-12-05T07:59:17.991Z,80.33
2022-12-05T08:01:25.500Z,80.31
2022-12-05T08:03:28.152Z,80.60
2022-12-05T08:05:30.764Z,80.71
2022-12-05T08:07:33.386Z,80.46
2022-12-05T08:09:36.315Z,80.51
2022-12-05T08:11:40.293Z,80.41
2022-12-05T08:13:43.750Z,80.85
2022-12-05T08:15:46.357Z,80.77
2022-12-05T08:17:48.957Z,81.15
2022-12-05T08:19:51.561Z,80.85
2022-12-05T08:21:55.280Z,81.03
2022-12-05T08:23:58.356Z,80.78
2022-12-05T08:26:05.211Z,80.41
2022-12-05T08:28:09.188Z,79.93
2022-12-05T08:30:11.960Z,79.79
2022-12-05T08:32:14.571Z,79.67
2022-12-05T08:34:19.037Z,79.58
2022-12-05T08:36:21.609Z,79.62
2022-12-05T08:38:24.318Z,79.79
2022-12-05T08:40:27.111Z,79.70
2022-12-05T08:42:29.701Z,79.29
2022-12-05T08:44:33.656Z,79.45
2022-12-05T08:46:38.503Z,79.78
2022-12-05T08:48:41.543Z,79.43
2022-12-05T08:50:44.161Z,79.38
2022-12-05T08:52:46.970Z,79.46
2022-12-05T08:54:49.560Z,79.20
2022-12-05T08:56:52.964Z,79.13
2022-12-05T08:59:02.914Z,78.96
2022-12-05T09:01:11.947Z,79.55
2022-12-05T09:03:14.777Z,79.41
2022-12-05T09:05:27.515Z,79.54
2022-12-05T09:07:31.625Z,79.59
2022-12-05T09:09:34.831Z,79.60
2022-12-05T09:11:40.807Z,79.54
2022-12-05T09:13:43.972Z,79.43
2022-12-05T09:15:46.612Z,79.39
2022-12-05T09:17:50.608Z,79.45
2022-12-05T09:19:53.258Z,79.65
2022-12-05T09:21:57.053Z,79.57
2022-12-05T09:24:00.735Z,79.77
2022-12-05T09:26:03.788Z,79.41
2022-12-05T09:28:06.360Z,79.32
2022-12-05T09:30:10.548Z,79.53
2022-12-05T09:32:13.262Z,78.89
2022-12-05T09:34:18.329Z,78.44
2022-12-05T09:36:23.099Z,78.43
2022-12-05T09:38:26.049Z,78.50
2022-12-05T09:40:28.768Z,78.10
2022-12-05T09:42:39.546Z,78.60
2022-12-05T09:45:05.875Z,78.75
2022-12-05T09:47:16.073Z,78.90
2022-12-05T09:49:20.440Z,78.96
2022-12-05T09:51:23.157Z,78.88
2022-12-05T09:53:30.680Z,78.98
2022-12-05T09:55:40.850Z,79.07
2022-12-05T09:57:48.397Z,79.16
2022-12-05T09:59:51.006Z,79.43
2022-12-05T10:02:00.947Z,79.06
2022-12-05T10:04:19.014Z,79.05
2022-12-05T10:06:27.299Z,79.47
2022-12-05T10:08:35.317Z,78.96
2022-12-05T10:10:52.538Z,79.15
2022-12-05T10:13:09.562Z,79.35
2022-12-05T10:15:17.778Z,79.55
2022-12-05T10:17:27.674Z,79.55
2022-12-05T10:19:35.242Z,79.60
2022-12-05T10:21:45.409Z,79.61
2022-12-05T10:23:58.273Z,79.64
2022-12-05T10:26:05.725Z,79.40
2022-12-05T10:28:16.583Z,79.13
2022-12-05T10:30:21.557Z,79.14
2022-12-05T10:32:29.402Z,79.28
2022-12-05T10:34:34.862Z,79.29
2022-12-05T10:36:38.778Z,79.57
2022-12-05T10:38:42.970Z,79.81
2022-12-05T10:40:50.823Z,80.10
2022-12-05T10:42:53.569Z,80.28
2022-12-05T10:44:59.383Z,80.41
2022-12-05T10:47:02.468Z,80.39
2022-12-05T10:49:11.758Z,80.54
2022-12-05T10:51:16.062Z,80.52
2022-12-05T10:53:24.020Z,80.84
2022-12-05T10:55:32.253Z,81.03
2022-12-05T10:57:34.848Z,81.24
2022-12-05T10:59:47.280Z,81.15
2022-12-05T11:01:53.481Z,80.98
2022-12-05T11:03:59.448Z,80.96
2022-12-05T11:06:04.150Z,80.88
2022-12-05T11:08:06.795Z,80.25
2022-12-05T11:10:26.598Z,79.30
2022-12-05T11:12:37.218Z,78.39
2022-12-05T11:14:39.840Z,78.58
2022-12-05T11:16:42.566Z,78.47
2022-12-05T11:18:48.611Z,77.88
2022-12-05T11:20:52.042Z,78.10
2022-12-05T11:22:57.012Z,78.08
2022-12-05T11:24:59.948Z,78.18
2022-12-05T11:27:22.541Z,78.05
2022-12-05T11:29:35.149Z,78.13
2022-12-05T11:31:37.785Z,78.16
2022-12-05T11:33:40.651Z,78.37
2022-12-05T11:35:43.741Z,78.51
2022-12-05T11:37:58.047Z,78.67
2022-12-05T11:40:02.724Z,78.48
2022-12-05T11:42:20.607Z,78.75
2022-12-05T11:44:57.216Z,78.66
2022-12-05T11:47:10.942Z,78.62
2022-12-05T11:49:30.007Z,78.79
2022-12-05T11:51:40.087Z,79.09
2022-12-05T11:54:13.362Z,79.15
2022-12-05T11:56:29.718Z,79.13
2022-12-05T11:58:57.368Z,78.65
2022-12-05T12:01:10.506Z,78.38
2022-12-05T12:03:54.707Z,77.54
2022-12-05T12:06:12.789Z,77.67
2022-12-05T12:08:24.037Z,77.40
2022-12-05T12:10:34.302Z,76.58
2022-12-05T12:12:51.196Z,76.44
2022-12-05T12:15:03.739Z,75.98
2022-12-05T12:17:17.289Z,75.87
2022-12-05T12:19:40.130Z,75.84
2022-12-05T12:22:03.558Z,75.83
2022-12-05T12:24:17.094Z,75.99
2022-12-05T12:26:29.314Z,75.07
2022-12-05T12:28:42.314Z,74.61
2022-12-05T12:30:56.936Z,74.54
2022-12-05T12:33:08.196Z,74.39
2022-12-05T12:35:30.002Z,74.58
2022-12-05T12:37:44.039Z,74.34
2022-12-05T12:39:53.487Z,74.06
2022-12-05T12:42:10.389Z,73.69
2022-12-05T12:44:33.521Z,73.35
2022-12-05T12:46:48.915Z,72.95
2022-12-05T12:49:04.820Z,72.36
2022-12-05T12:51:14.525Z,71.47
2022-12-05T12:53:56.300Z,71.00
2022-12-05T12:56:05.319Z,69.43
2022-12-05T12:58:18.057Z,70.33
2022-12-05T13:00:28.812Z,69.94
2022-12-05T13:02:41.184Z,70.26
2022-12-05T13:04:50.866Z,70.43
2022-12-05T13:06:57.437Z,70.23
2022-12-05T13:09:04.514Z,70.22
2022-12-05T13:11:11.621Z,70.42
2022-12-05T13:13:17.185Z,70.12
2022-12-05T13:15:23.485Z,70.21
2022-12-05T13:17:26.444Z,70.07
2022-12-05T13:19:37.271Z,70.09
2022-12-05T13:21:41.462Z,70.08
2022-12-05T13:23:47.602Z,70.53
2022-12-05T13:25:52.573Z,70.78
2022-12-05T13:27:58.321Z,70.96
2022-12-05T13:30:06.981Z,70.93
2022-12-05T13:32:30.323Z,70.62
2022-12-05T13:34:53.872Z,70.39
2022-12-05T13:37:17.396Z,70.49
2022-12-05T13:39:40.658Z,70.58
2022-12-05T13:42:03.359Z,70.06
2022-12-05T13:44:12.470Z,69.32
2022-12-05T13:46:27.310Z,69.17
2022-12-05T13:48:33.959Z,68.59
2022-12-05T13:50:43.225Z,68.76
2022-12-05T13:52:49.885Z,68.16
2022-12-05T13:54:59.237Z,67.59
2022-12-05T13:57:03.710Z,67.86
2022-12-05T13:59:06.302Z,68.24
2022-12-05T14:01:47.673Z,67.93
2022-12-05T14:03:58.293Z,68.11
2022-12-05T14:06:01.114Z,68.42
2022-12-05T14:08:46.810Z,68.71
2022-12-05T14:11:12.198Z,69.00
2022-12-05T14:13:42.331Z,69.11
2022-12-05T14:15:46.446Z,69.39
2022-12-05T14:17:50.152Z,69.51
2022-12-05T14:20:06.602Z,69.72
2022-12-05T14:22:35.218Z,69.91
2022-12-05T14:24:46.333Z,69.83
2022-12-05T14:27:07.231Z,69.87
2022-12-05T14:29:26.151Z,70.29
2022-12-05T14:31:43.696Z,69.90
2022-12-05T14:33:46.505Z,70.07
2022-12-05T14:35:51.469Z,70.29
2022-12-05T14:37:56.593Z,70.40
2022-12-05T14:40:02.995Z,69.44
2022-12-05T14:42:24.869Z,67.86
2022-12-05T14:44:32.128Z,68.09
2022-12-05T14:46:35.336Z,67.24
2022-12-05T14:48:47.325Z,66.90
2022-12-05T14:50:52.719Z,67.35
2022-12-05T14:53:22.705Z,67.43
2022-12-05T14:55:27.255Z,67.71
2022-12-05T14:57:32.577Z,67.62
2022-12-05T14:59:45.137Z,67.66
2022-12-05T15:01:53.134Z,67.27
2022-12-05T15:04:09.179Z,66.15
2022-12-05T15:06:16.459Z,66.46
2022-12-05T15:08:21.333Z,66.45
2022-12-05T15:10:29.419Z,66.90
2022-12-05T15:12:39.958Z,67.19
2022-12-05T15:14:48.958Z,67.08
2022-12-05T15:16:55.031Z,66.84
2022-12-05T15:19:03.128Z,67.03
2022-12-05T15:21:10.501Z,66.40
2022-12-05T15:23:42.178Z,66.18
2022-12-05T15:25:47.100Z,65.72
2022-12-05T15:27:55.451Z,65.87
2022-12-05T15:29:58.947Z,65.38
2022-12-05T15:32:03.648Z,65.26
2022-12-05T15:34:12.341Z,66.01
2022-12-05T15:36:15.133Z,66.03
2022-12-05T15:38:27.592Z,65.15
2022-12-05T15:40:37.409Z,65.84
2022-12-05T15:42:45.688Z,66.34
2022-12-05T15:44:48.411Z,65.71
2022-12-05T15:46:54.545Z,66.13
2022-12-05T15:49:00.490Z,66.48
2022-12-05T15:51:04.022Z,66.76
2022-12-05T15:53:14.563Z,67.07
2022-12-05T15:55:25.941Z,67.15
2022-12-05T15:57:37.994Z,66.89
2022-12-05T15:59:46.710Z,66.57
2022-12-05T16:01:53.975Z,66.91
2022-12-05T16:03:59.550Z,67.22
2022-12-05T16:06:10.640Z,66.89
2022-12-05T16:08:13.589Z,67.11
2022-12-05T16:10:17.678Z,67.23
2022-12-05T16:12:27.015Z,67.61
2022-12-05T16:14:59.055Z,67.72
2022-12-05T16:17:02.659Z,68.17
2022-12-05T16:19:08.074Z,67.70
2022-12-05T16:21:37.837Z,67.06
2022-12-05T16:23:43.973Z,67.44
2022-12-05T16:25:46.587Z,67.42
2022-12-05T16:27:58.310Z,67.48
2022-12-05T16:30:19.163Z,67.68
2022-12-05T16:32:26.279Z,67.69
2022-12-05T16:34:34.300Z,67.67
2022-12-05T16:36:36.937Z,67.61
2022-12-05T16:38:40.889Z,67.82
2022-12-05T16:40:53.969Z,68.07
2022-12-05T16:43:02.976Z,68.15
2022-12-05T16:45:06.893Z,68.15
2022-12-05T16:47:23.574Z,68.34
2022-12-05T16:49:36.410Z,67.58
2022-12-05T16:51:43.156Z,67.67
2022-12-05T16:53:47.295Z,67.46
2022-12-05T16:55:50.324Z,67.56
2022-12-05T16:57:52.926Z,67.42
2022-12-05T16:59:55.594Z,67.21
2022-12-05T17:01:58.256Z,67.43
2022-12-05T17:04:00.992Z,67.64
2022-12-05T17:06:05.512Z,67.90
2022-12-05T17:08:08.421Z,68.25
2022-12-05T17:10:11.251Z,68.07
2022-12-05T17:12:19.688Z,68.12
2022-12-05T17:14:22.649Z,68.31
2022-12-05T17:16:26.617Z,68.74
2022-12-05T17:18:31.799Z,68.96
2022-12-05T17:20:35.534Z,69.03
2022-12-05T17:22:39.553Z,69.18
2022-12-05T17:24:42.173Z,69.26
2022-12-05T17:26:45.409Z,69.28
2022-12-05T17:28:48.862Z,69.21
2022-12-05T17:30:52.031Z,69.15
2022-12-05T17:32:55.071Z,68.98
2022-12-05T17:35:00.099Z,68.83
2022-12-05T17:37:04.945Z,68.99
2022-12-05T17:39:09.293Z,68.99
2022-12-05T17:41:16.752Z,68.80
2022-12-05T17:43:24.771Z,68.64
2022-12-05T17:45:27.835Z,68.68
2022-12-05T17:47:30.469Z,68.08
2022-12-05T17:49:33.095Z,68.20
2022-12-05T17:51:48.105Z,68.35
2022-12-05T17:53:58.301Z,68.33
2022-12-05T17:56:02.273Z,68.33
2022-12-05T17:58:04.858Z,68.36
2022-12-05T18:00:08.925Z,68.28
2022-12-05T18:02:12.442Z,68.21
2022-12-05T18:04:17.691Z,68.39
2022-12-05T18:06:26.521Z,68.47
2022-12-05T18:08:29.161Z,68.32
2022-12-05T18:10:31.737Z,67.87
2022-12-05T18:12:35.769Z,68.00
2022-12-05T18:14:39.496Z,68.42
2022-12-05T18:16:42.182Z,68.36
2022-12-05T18:18:44.915Z,68.21
2022-12-05T18:20:47.512Z,68.33
2022-12-05T18:22:51.176Z,68.31
2022-12-05T18:24:54.222Z,68.11
2022-12-05T18:26:56.871Z,67.99
2022-12-05T18:29:00.861Z,68.16
2022-12-05T18:31:08.050Z,68.66
2022-12-05T18:33:10.677Z,68.85
2022-12-05T18:35:13.425Z,69.16
2022-12-05T18:37:18.309Z,69.09
2022-12-05T18:39:20.937Z,69.21
2022-12-05T18:41:24.281Z,69.33
2022-12-05T18:43:26.864Z,69.63
2022-12-05T18:45:30.978Z,69.89
2022-12-05T18:47:33.593Z,69.97
2022-12-05T18:49:36.371Z,70.22
2022-12-05T18:51:39.368Z,70.34
2022-12-05T18:53:43.004Z,70.51
2022-12-05T18:56:13.023Z,70.74
2022-12-05T18:58:08.885Z,70.68
2022-12-05T19:00:12.879Z,70.78
2022-12-05T19:02:16.880Z,70.75
2022-12-05T19:04:21.586Z,70.82
2022-12-05T19:06:26.731Z,70.88
2022-12-05T19:08:29.405Z,70.74
2022-12-05T19:10:32.003Z,70.93
2022-12-05T19:12:34.583Z,70.93
2022-12-05T19:14:37.893Z,71.22
2022-12-05T19:16:40.745Z,71.24
2022-12-05T19:18:45.061Z,71.37
2022-12-05T19:20:52.152Z,71.62
2022-12-05T19:23:00.553Z,71.60
2022-12-05T19:25:03.691Z,71.78
2022-12-05T19:27:06.279Z,71.90
2022-12-05T19:29:09.439Z,71.71
2022-12-05T19:31:14.278Z,71.72
2022-12-05T19:33:17.015Z,72.20
2022-12-05T19:35:21.064Z,72.38
2022-12-05T19:37:23.696Z,72.35
2022-12-05T19:39:27.037Z,72.43
2022-12-05T19:41:31.263Z,72.31
2022-12-05T19:43:34.861Z,72.29
2022-12-05T19:45:39.476Z,72.52
2022-12-05T19:47:42.073Z,72.61
2022-12-05T19:49:44.707Z,72.59
2022-12-05T19:51:48.712Z,72.59
2022-12-05T19:53:51.425Z,72.71
2022-12-05T19:55:54.040Z,72.69
2022-12-05T19:57:56.678Z,72.83
2022-12-05T19:59:59.575Z,72.93
2022-12-05T20:02:02.470Z,73.02
2022-12-05T20:04:07.111Z,72.80
2022-12-05T20:06:12.027Z,73.22
2022-12-05T20:08:16.069Z,73.27
2022-12-05T20:10:19.008Z,73.32
2022-12-05T20:12:21.643Z,73.38
2022-12-05T20:14:25.657Z,73.50
2022-12-05T20:16:29.843Z,73.41
2022-12-05T20:18:33.547Z,72.95
2022-12-05T20:20:36.249Z,72.55
2022-12-05T20:22:38.851Z,72.49
2022-12-05T20:24:42.833Z,72.20
2022-12-05T20:26:48.643Z,72.23
2022-12-05T20:28:51.687Z,72.13
2022-12-05T20:30:54.418Z,71.47
2022-12-05T20:32:57.071Z,71.35
2022-12-05T20:34:59.763Z,71.30
2022-12-05T20:37:02.371Z,71.04
2022-12-05T20:39:06.694Z,71.06
2022-12-05T20:41:12.137Z,71.20
2022-12-05T20:43:15.971Z,71.26
2022-12-05T20:45:18.730Z,71.30
2022-12-05T20:47:21.315Z,71.46
2022-12-05T20:49:24.179Z,71.51
2022-12-05T20:51:28.381Z,71.79
2022-12-05T20:53:33.680Z,71.62
2022-12-05T20:55:36.507Z,71.83
2022-12-05T20:57:40.555Z,71.91
2022-12-05T20:59:43.279Z,71.60
2022-12-05T21:01:47.433Z,71.84
2022-12-05T21:03:51.617Z,71.50
2022-12-05T21:05:54.445Z,71.55
2022-12-05T21:07:57.114Z,71.54
2022-12-05T21:10:04.716Z,71.59
2022-12-05T21:12:10.603Z,71.55
2022-12-05T21:14:14.846Z,71.60
2022-12-05T21:16:20.369Z,71.83
2022-12-05T21:18:23.075Z,71.48
2022-12-05T21:20:25.657Z,71.62
2022-12-05T21:22:28.291Z,71.59
2022-12-05T21:24:30.953Z,71.38
2022-12-05T21:26:35.868Z,71.35
2022-12-05T21:28:38.621Z,71.38
2022-12-05T21:30:42.617Z,71.45
2022-12-05T21:32:45.414Z,71.09
2022-12-05T21:34:48.218Z,70.93
2022-12-05T21:36:50.984Z,71.28
2022-12-05T21:38:56.323Z,71.31
2022-12-05T21:40:59.811Z,71.25
2022-12-05T21:43:02.481Z,71.31
2022-12-05T21:45:05.726Z,71.43
2022-12-05T21:47:09.694Z,71.39
2022-12-05T21:49:12.376Z,71.34
2022-12-05T21:51:14.975Z,71.38
2022-12-05T21:53:18.262Z,71.45
2022-12-05T21:55:20.899Z,71.71
2022-12-05T21:57:23.487Z,71.92
2022-12-05T21:59:27.087Z,71.93
2022-12-05T22:01:30.032Z,71.96
2022-12-05T22:03:34.389Z,71.65
2022-12-05T22:05:36.979Z,71.87
2022-12-05T22:07:39.715Z,71.86
2022-12-05T22:09:42.372Z,71.96
2022-12-05T22:11:45.159Z,71.91
2022-12-05T22:13:48.919Z,71.85
2022-12-05T22:15:51.590Z,71.82
2022-12-05T22:17:54.200Z,71.98
2022-12-05T22:19:58.600Z,71.98
2022-12-05T22:22:01.443Z,71.69
2022-12-05T22:24:04.076Z,71.69
2022-12-05T22:26:08.359Z,71.70
2022-12-05T22:28:10.925Z,71.85
2022-12-05T22:30:14.156Z,72.04
2022-12-05T22:32:16.787Z,72.16
2022-12-05T22:34:19.476Z,72.23
2022-12-05T22:36:24.214Z,71.97
2022-12-05T22:38:28.431Z,72.00
2022-12-05T22:40:31.048Z,72.24
2022-12-05T22:42:33.662Z,72.17
2022-12-05T22:44:36.277Z,72.31
2022-12-05T22:46:39.019Z,72.67
2022-12-05T22:48:42.044Z,72.55
2022-12-05T22:50:48.226Z,72.59
2022-12-05T22:52:52.203Z,72.62
2022-12-05T22:54:54.796Z,72.75
2022-12-05T22:56:57.397Z,73.01
2022-12-05T22:59:01.374Z,72.89
2022-12-05T23:01:12.427Z,72.97
2022-12-05T23:03:15.376Z,72.81
2022-12-05T23:05:18.112Z,72.61
2022-12-05T23:07:20.802Z,72.57
2022-12-05T23:09:25.046Z,72.70
2022-12-05T23:11:29.660Z,72.70
2022-12-05T23:13:33.788Z,72.51
2022-12-05T23:15:38.939Z,72.97
2022-12-05T23:17:42.949Z,73.00
2022-12-05T23:19:45.623Z,73.12
2022-12-05T23:21:48.296Z,73.18
2022-12-05T23:23:52.807Z,73.25
2022-12-05T23:25:58.527Z,73.16
2022-12-05T23:28:01.245Z,73.06
2022-12-05T23:30:04.132Z,73.36
2022-12-05T23:32:06.865Z,73.41
2022-12-05T23:34:09.950Z,73.43
2022-12-05T23:36:13.629Z,73.41
2022-12-05T23:38:16.313Z,73.23
2022-12-05T23:40:19.343Z,73.26
2022-12-05T23:42:23.792Z,73.43
2022-12-05T23:44:26.496Z,73.41
2022-12-05T23:46:29.749Z,73.31
2022-12-05T23:48:33.367Z,73.27
2022-12-05T23:50:36.044Z,73.31
2022-12-05T23:52:38.912Z,73.40
2022-12-05T23:54:43.931Z,73.43
2022-12-05T23:56:46.887Z,73.31
2022-12-05T23:58:51.064Z,73.48
